Time;durP1;ratioP1;P1;durP2;ratioP2;P2;SDS_P1;SDS_P2;PMS_P1;PMS_P2;Temp;Humidity;BMP_temperature;BMP_pressure;BME280_temperature;BME280_humidity;BME280_pressure;Samples;Min_cycle;Max_cycle;Signal;HPM_P1;HPM_P2
2022/12/27 00:00:44;;;;;;;0.00;0.00;;;4.60;99.90;;;;;;5071291;28;20209;-79
2022/12/27 00:03:09;;;;;;;0.10;0.10;;;4.60;99.90;;;;;;5071403;28;20184;-79
2022/12/27 00:05:35;;;;;;;0.10;0.10;;;4.60;99.90;;;;;;5072127;28;20183;-80
2022/12/27 00:08:00;;;;;;;0.10;0.10;;;4.50;99.90;;;;;;5070152;28;20674;-81
2022/12/27 00:10:26;;;;;;;0.00;0.00;;;4.50;99.90;;;;;;5069981;28;20213;-80
2022/12/27 00:12:52;;;;;;;0.10;0.10;;;4.40;99.90;;;;;;5055722;28;20630;-78
2022/12/27 00:15:18;;;;;;;0.10;0.10;;;4.40;99.90;;;;;;5070138;28;20185;-80
2022/12/27 00:17:43;;;;;;;0.10;0.10;;;4.40;99.90;;;;;;5070834;28;20195;-79
2022/12/27 00:20:09;;;;;;;0.00;0.00;;;4.40;99.90;;;;;;5071093;28;20679;-78
2022/12/27 00:22:34;;;;;;;0.10;0.10;;;4.40;99.90;;;;;;5054722;28;20189;-79
2022/12/27 00:25:00;;;;;;;0.00;0.00;;;4.40;99.90;;;;;;5053759;28;20200;-78
2022/12/27 00:27:26;;;;;;;0.07;0.07;;;4.40;99.90;;;;;;5054681;28;21160;-79
2022/12/27 00:29:51;;;;;;;0.10;0.10;;;4.40;99.90;;;;;;5055380;28;20193;-78
2022/12/27 00:32:17;;;;;;;0.10;0.10;;;4.40;99.90;;;;;;5070154;28;20234;-79
2022/12/27 00:34:42;;;;;;;0.10;0.10;;;4.40;99.90;;;;;;5054303;28;20286;-80
2022/12/27 00:37:08;;;;;;;0.10;0.10;;;4.30;99.90;;;;;;5069397;28;20232;-80
2022/12/27 00:39:33;;;;;;;0.10;0.10;;;4.30;99.90;;;;;;5068662;28;20179;-79
2022/12/27 00:41:59;;;;;;;0.10;0.10;;;4.30;99.90;;;;;;5068522;28;20212;-81
2022/12/27 00:44:24;;;;;;;0.10;0.10;;;4.20;99.90;;;;;;5071409;28;20187;-81
2022/12/27 00:46:50;;;;;;;0.00;0.00;;;4.20;99.90;;;;;;5068594;28;20678;-79
2022/12/27 00:49:15;;;;;;;0.10;0.10;;;4.20;99.90;;;;;;5053821;28;20192;-80
2022/12/27 00:51:42;;;;;;;0.10;0.10;;;4.20;99.90;;;;;;5053442;28;20259;-79
2022/12/27 00:54:07;;;;;;;0.00;0.00;;;4.20;99.90;;;;;;5054782;28;20267;-80
2022/12/27 00:56:33;;;;;;;0.10;0.10;;;4.20;99.90;;;;;;5069683;28;20755;-79
2022/12/27 00:59:02;;;;;;;0.10;0.10;;;4.20;99.90;;;;;;5055580;28;20723;-80
2022/12/27 01:01:32;;;;;;;0.10;0.10;;;4.20;99.90;;;;;;5056816;28;20211;-79
2022/12/27 01:03:58;;;;;;;0.10;0.10;;;4.10;99.90;;;;;;5070343;28;20187;-79
2022/12/27 01:06:27;;;;;;;0.10;0.10;;;4.20;99.90;;;;;;5055389;28;20562;-81
2022/12/27 01:08:54;;;;;;;0.00;0.00;;;4.20;99.90;;;;;;5070970;28;20181;-82
2022/12/27 01:11:20;;;;;;;0.10;0.10;;;4.20;99.90;;;;;;5069250;28;20211;-79
2022/12/27 01:13:46;;;;;;;0.00;0.00;;;4.10;99.90;;;;;;5055306;28;20190;-79
2022/12/27 01:16:15;;;;;;;0.10;0.10;;;4.00;99.90;;;;;;5054482;28;20186;-80
2022/12/27 01:18:40;;;;;;;0.10;0.10;;;3.90;99.90;;;;;;5054983;28;20657;-79
2022/12/27 01:21:07;;;;;;;0.10;0.10;;;3.90;99.90;;;;;;5069626;28;20204;-79
2022/12/27 01:23:33;;;;;;;0.10;0.10;;;4.00;99.90;;;;;;5054453;28;20189;-79
2022/12/27 01:26:05;;;;;;;0.10;0.10;;;4.00;99.90;;;;;;5054261;28;20199;-78
2022/12/27 01:28:31;;;;;;;0.10;0.10;;;3.90;99.90;;;;;;5068258;28;20178;-81
2022/12/27 01:30:58;;;;;;;0.10;0.10;;;3.80;99.90;;;;;;5054546;28;21271;-78
2022/12/27 01:33:23;;;;;;;0.10;0.10;;;3.80;99.90;;;;;;5068235;28;20257;-79
2022/12/27 01:35:49;;;;;;;0.10;0.10;;;3.80;99.90;;;;;;5052612;28;20681;-79
2022/12/27 01:38:14;;;;;;;0.10;0.10;;;3.80;99.90;;;;;;5053302;28;20273;-80
2022/12/27 01:40:40;;;;;;;0.10;0.10;;;3.70;99.90;;;;;;5068577;28;20246;-79
2022/12/27 01:43:05;;;;;;;0.00;0.00;;;3.50;99.90;;;;;;5055399;28;20194;-79
2022/12/27 01:45:35;;;;;;;0.10;0.10;;;3.40;99.90;;;;;;5052945;28;20686;-79
2022/12/27 01:48:16;;;;;;;0.10;0.10;;;3.40;99.90;;;;;;5054833;28;20256;-80
2022/12/27 01:50:49;;;;;;;0.10;0.10;;;3.40;99.90;;;;;;5055281;28;20243;-79
2022/12/27 01:53:24;;;;;;;0.07;0.07;;;3.40;99.90;;;;;;5050638;28;20302;-78
2022/12/27 01:56:00;;;;;;;0.10;0.10;;;3.30;99.90;;;;;;5053090;28;20221;-80
2022/12/27 01:58:34;;;;;;;0.10;0.10;;;3.20;99.90;;;;;;5052928;28;20197;-80
2022/12/27 02:01:00;;;;;;;0.00;0.00;;;3.20;99.90;;;;;;5054759;28;20609;-79
2022/12/27 02:03:34;;;;;;;0.10;0.10;;;3.20;99.90;;;;;;5054951;28;20281;-81
2022/12/27 02:06:03;;;;;;;0.10;0.10;;;3.30;99.90;;;;;;5053993;28;20214;-80
2022/12/27 02:08:51;;;;;;;0.10;0.10;;;3.30;99.90;;;;;;5053974;28;20188;-79
2022/12/27 02:11:49;;;;;;;0.10;0.10;;;3.30;99.90;;;;;;5039999;28;20690;-79
2022/12/27 02:14:06;;;;;;;0.10;0.10;;;3.30;99.90;;;;;;5054355;28;20287;-79
2022/12/27 02:16:31;;;;;;;0.03;0.03;;;3.40;99.90;;;;;;5054514;28;20275;-81
2022/12/27 02:18:57;;;;;;;0.10;0.10;;;3.50;99.90;;;;;;5069545;28;20670;-79
2022/12/27 02:21:50;;;;;;;0.10;0.10;;;3.50;99.90;;;;;;5065286;28;20199;-80
2022/12/27 02:24:22;;;;;;;0.10;0.10;;;3.50;99.90;;;;;;5054081;28;20177;-78
2022/12/27 02:26:58;;;;;;;0.00;0.00;;;3.50;99.90;;;;;;5068028;28;20197;-79
2022/12/27 02:29:28;;;;;;;0.10;0.10;;;3.50;99.90;;;;;;5066864;28;20184;-81
2022/12/27 02:32:28;;;;;;;0.00;0.00;;;3.50;99.90;;;;;;5067042;28;20895;-79
2022/12/27 02:35:17;;;;;;;0.00;0.00;;;3.40;99.90;;;;;;5034409;28;20262;-79
2022/12/27 02:37:49;;;;;;;0.10;0.10;;;3.30;99.90;;;;;;5053290;28;20178;-79
2022/12/27 02:54:35;;;;;;;0.00;0.00;;;3.30;99.90;;;;;;5052775;28;20248;-81
2022/12/27 02:57:29;;;;;;;0.00;0.00;;;3.20;99.90;;;;;;5067522;28;20209;-79
2022/12/27 03:03:23;;;;;;;0.00;0.00;;;3.20;99.90;;;;;;5053610;28;20189;-79
2022/12/27 03:06:38;;;;;;;0.00;0.00;;;3.20;99.90;;;;;;5066995;28;20198;-79
2022/12/27 03:18:13;;;;;;;0.10;0.10;;;2.90;99.90;;;;;;5054295;28;20183;-78
2022/12/27 03:26:12;;;;;;;0.87;0.87;;;3.00;99.90;;;;;;5052653;28;20292;-80
2022/12/27 03:34:37;;;;;;;0.10;0.10;;;3.10;99.90;;;;;;5052126;28;20722;-79
2022/12/27 03:40:33;;;;;;;0.10;0.10;;;3.00;99.90;;;;;;5053431;28;20218;-79
2022/12/27 03:43:13;;;;;;;0.10;0.10;;;2.90;99.90;;;;;;5052702;28;20180;-79
2022/12/27 03:49:22;;;;;;;0.00;0.00;;;3.10;99.90;;;;;;5052727;28;20206;-79
2022/12/27 03:52:11;;;;;;;0.00;0.00;;;3.00;99.90;;;;;;5068804;28;20376;-80
2022/12/27 03:54:40;;;;;;;0.10;0.10;;;2.90;99.90;;;;;;5055469;28;20196;-79
2022/12/27 03:57:11;;;;;;;0.10;0.10;;;3.10;99.90;;;;;;5055164;28;20996;-80
2022/12/27 03:59:37;;;;;;;0.10;0.10;;;3.10;99.90;;;;;;5072569;28;20236;-79
2022/12/27 04:02:04;;;;;;;0.00;0.00;;;3.10;99.90;;;;;;5055768;28;21284;-81
2022/12/27 04:04:29;;;;;;;0.10;0.10;;;3.10;99.90;;;;;;5057097;28;20235;-79
2022/12/27 04:06:55;;;;;;;0.10;0.10;;;3.10;99.90;;;;;;5071280;28;20315;-79
2022/12/27 04:36:42;;;;;;;0.10;0.10;;;2.80;99.90;;;;;;5054565;28;20201;-80
2022/12/27 04:39:08;;;;;;;0.10;0.10;;;2.90;99.90;;;;;;5070979;28;20186;-79
2022/12/27 04:55:22;;;;;;;0.00;0.00;;;3.00;99.90;;;;;;5055449;28;20188;-80
2022/12/27 04:57:48;;;;;;;0.10;0.10;;;3.00;99.90;;;;;;5052316;28;20617;-79
2022/12/27 05:03:00;;;;;;;0.10;0.10;;;3.00;99.90;;;;;;5053090;28;20189;-79
2022/12/27 05:05:26;;;;;;;0.10;0.10;;;3.00;99.90;;;;;;5053819;28;20194;-79
2022/12/27 05:16:04;;;;;;;0.10;0.10;;;3.00;99.90;;;;;;5056417;28;20235;-81
2022/12/27 05:18:30;;;;;;;0.00;0.00;;;3.10;99.90;;;;;;5071071;28;20187;-79
2022/12/27 05:21:01;;;;;;;0.00;0.00;;;3.10;99.90;;;;;;5066641;28;20207;-79
2022/12/27 05:26:24;;;;;;;0.10;0.10;;;3.00;99.90;;;;;;5054727;28;20238;-79
2022/12/27 05:28:52;;;;;;;0.10;0.10;;;3.10;99.90;;;;;;5050986;28;20184;-79
2022/12/27 05:31:18;;;;;;;0.10;0.10;;;3.10;99.90;;;;;;5052305;28;20255;-79
2022/12/27 05:33:43;;;;;;;0.10;0.10;;;3.00;99.90;;;;;;5052489;28;20255;-79
2022/12/27 05:36:09;;;;;;;0.00;0.00;;;3.00;99.90;;;;;;5066038;28;20185;-79
2022/12/27 05:38:35;;;;;;;0.10;0.10;;;2.90;99.90;;;;;;5066126;28;20192;-79
2022/12/27 05:41:01;;;;;;;0.10;0.10;;;2.90;99.90;;;;;;5055321;28;20202;-79
2022/12/27 05:43:28;;;;;;;0.00;0.00;;;2.90;99.90;;;;;;5052496;28;20197;-79
2022/12/27 05:45:54;;;;;;;0.10;0.10;;;2.90;99.90;;;;;;5050243;28;20872;-78
2022/12/27 05:48:21;;;;;;;0.10;0.10;;;3.10;99.90;;;;;;5053308;28;20190;-79
2022/12/27 05:50:46;;;;;;;0.00;0.00;;;3.20;99.90;;;;;;5052841;28;20212;-79
2022/12/27 05:53:12;;;;;;;0.00;0.00;;;3.30;99.90;;;;;;5068597;28;20210;-79
2022/12/27 05:55:38;;;;;;;0.00;0.00;;;3.40;99.90;;;;;;5054664;28;20185;-78
2022/12/27 05:58:03;;;;;;;0.10;0.10;;;3.30;99.90;;;;;;5053980;28;20198;-78
2022/12/27 06:00:29;;;;;;;0.00;0.00;;;3.30;99.90;;;;;;5068680;28;20283;-77
2022/12/27 06:02:54;;;;;;;0.10;0.10;;;3.30;99.90;;;;;;5054102;28;20662;-81
2022/12/27 06:05:20;;;;;;;0.10;0.10;;;3.50;99.90;;;;;;5068488;28;20204;-79
2022/12/27 06:07:45;;;;;;;0.00;0.00;;;3.50;99.90;;;;;;5055217;28;20224;-78
2022/12/27 06:10:11;;;;;;;0.10;0.10;;;3.50;99.90;;;;;;5051271;28;20207;-79
2022/12/27 06:12:37;;;;;;;0.10;0.10;;;3.60;99.90;;;;;;5052233;28;20202;-78
2022/12/27 06:15:04;;;;;;;0.10;0.10;;;3.50;99.90;;;;;;5051228;28;20184;-78
2022/12/27 06:17:30;;;;;;;0.10;0.10;;;3.60;99.90;;;;;;5053507;28;20212;-81
2022/12/27 06:19:55;;;;;;;0.10;0.10;;;3.40;99.90;;;;;;5053835;28;20188;-81
2022/12/27 06:22:21;;;;;;;0.10;0.10;;;3.30;99.90;;;;;;5068691;28;20660;-81
2022/12/27 06:24:46;;;;;;;0.10;0.10;;;3.30;99.90;;;;;;5053256;28;20207;-79
2022/12/27 06:27:12;;;;;;;0.10;0.10;;;3.30;99.90;;;;;;5052184;28;20276;-78
2022/12/27 06:29:37;;;;;;;0.07;0.07;;;3.30;99.90;;;;;;5049198;28;20187;-78
2022/12/27 06:32:03;;;;;;;0.03;0.03;;;3.20;99.90;;;;;;5052602;28;20218;-79
2022/12/27 06:34:29;;;;;;;0.10;0.10;;;3.20;99.90;;;;;;5066815;28;20180;-79
2022/12/27 06:36:54;;;;;;;0.10;0.10;;;3.30;99.90;;;;;;5052913;28;20200;-80
2022/12/27 06:39:20;;;;;;;0.10;0.10;;;3.30;99.90;;;;;;5071141;28;20182;-80
2022/12/27 06:41:46;;;;;;;0.00;0.00;;;3.10;99.90;;;;;;5050394;28;20220;-80
2022/12/27 06:44:11;;;;;;;0.10;0.10;;;3.00;99.90;;;;;;5053359;28;20265;-80
2022/12/27 06:46:37;;;;;;;0.10;0.10;;;2.80;99.90;;;;;;5055455;28;20183;-79
2022/12/27 06:49:03;;;;;;;0.03;0.03;;;2.40;99.90;;;;;;5053954;28;20181;-80
2022/12/27 06:51:29;;;;;;;0.07;0.07;;;2.10;99.90;;;;;;5069558;28;20207;-80
2022/12/27 06:53:54;;;;;;;0.10;0.10;;;2.00;99.90;;;;;;5056208;28;20534;-80
2022/12/27 06:56:21;;;;;;;0.10;0.10;;;1.90;99.90;;;;;;5055901;28;20257;-79
2022/12/27 06:58:48;;;;;;;0.00;0.00;;;1.90;99.90;;;;;;5054321;28;20703;-79
2022/12/27 07:01:17;;;;;;;0.10;0.10;;;2.00;99.90;;;;;;5051306;28;20207;-79
2022/12/27 07:03:46;;;;;;;0.00;0.00;;;2.10;99.90;;;;;;5053065;28;20184;-79
2022/12/27 07:06:12;;;;;;;0.10;0.10;;;2.20;99.90;;;;;;5053942;28;20199;-81
2022/12/27 07:08:37;;;;;;;0.10;0.10;;;2.20;99.90;;;;;;5073089;28;20177;-80
2022/12/27 07:11:08;;;;;;;0.00;0.00;;;2.20;99.90;;;;;;5069142;28;20220;-80
2022/12/27 07:13:40;;;;;;;0.07;0.07;;;2.30;99.90;;;;;;5053746;28;20221;-80
2022/12/27 07:16:08;;;;;;;0.10;0.10;;;2.40;99.90;;;;;;5053582;28;20191;-79
2022/12/27 07:18:34;;;;;;;0.00;0.00;;;2.50;99.90;;;;;;5056438;28;20188;-80
2022/12/27 07:21:07;;;;;;;0.00;0.00;;;2.40;99.90;;;;;;5069240;28;20661;-79
2022/12/27 07:23:32;;;;;;;0.00;0.00;;;2.50;99.90;;;;;;5057297;28;21092;-80
2022/12/27 07:26:05;;;;;;;0.10;0.10;;;2.60;99.90;;;;;;5071608;28;20190;-80
2022/12/27 07:28:31;;;;;;;0.10;0.10;;;2.80;99.90;;;;;;5055467;28;20404;-79
2022/12/27 07:30:57;;;;;;;0.10;0.10;;;3.00;99.90;;;;;;5056299;28;20330;-81
2022/12/27 07:33:23;;;;;;;0.00;0.00;;;3.10;99.90;;;;;;5074437;28;20347;-81
2022/12/27 07:35:48;;;;;;;0.10;0.10;;;3.20;99.90;;;;;;5055668;28;20200;-80
2022/12/27 07:38:14;;;;;;;0.10;0.10;;;3.30;99.90;;;;;;5056729;28;20233;-80
2022/12/27 07:40:39;;;;;;;0.00;0.00;;;3.30;99.90;;;;;;5056379;28;20216;-80
2022/12/27 07:43:04;;;;;;;0.07;0.07;;;3.40;99.90;;;;;;5071576;28;20193;-80
2022/12/27 07:45:31;;;;;;;0.00;0.00;;;3.40;99.90;;;;;;5073214;28;20186;-80
2022/12/27 07:47:56;;;;;;;0.10;0.10;;;3.50;99.90;;;;;;5072993;28;20195;-79
2022/12/27 07:50:22;;;;;;;0.03;0.03;;;3.50;99.90;;;;;;5073523;28;20224;-79
2022/12/27 07:52:47;;;;;;;0.10;0.10;;;3.40;99.90;;;;;;5054091;28;20218;-80
2022/12/27 07:55:13;;;;;;;0.10;0.10;;;3.40;99.90;;;;;;5073397;28;21417;-79
2022/12/27 07:57:38;;;;;;;0.00;0.00;;;3.40;99.90;;;;;;5072526;28;20196;-80
2022/12/27 08:00:05;;;;;;;0.10;0.10;;;3.50;99.90;;;;;;5065590;28;21217;-80
2022/12/27 08:02:30;;;;;;;0.10;0.10;;;3.60;99.90;;;;;;5068686;28;20197;-80
2022/12/27 08:04:56;;;;;;;0.10;0.10;;;3.60;99.90;;;;;;5072396;28;20209;-80
2022/12/27 08:07:24;;;;;;;0.10;0.10;;;3.70;99.90;;;;;;5057010;28;20185;-80
2022/12/27 08:09:49;;;;;;;0.10;0.10;;;3.70;99.90;;;;;;5069713;28;20186;-80
2022/12/27 08:12:15;;;;;;;0.10;0.10;;;3.90;99.90;;;;;;5053548;28;20280;-79
2022/12/27 08:14:41;;;;;;;0.00;0.00;;;4.00;99.90;;;;;;5056948;28;20194;-79
2022/12/27 08:17:27;;;;;;;0.10;0.10;;;4.20;99.90;;;;;;5055313;28;20179;-80
2022/12/27 08:19:54;;;;;;;0.10;0.10;;;4.20;99.90;;;;;;5052667;28;20674;-79
2022/12/27 08:22:20;;;;;;;0.00;0.00;;;4.30;99.90;;;;;;5067090;28;20182;-78
2022/12/27 08:24:45;;;;;;;0.10;0.10;;;4.40;99.90;;;;;;5052481;28;20681;-81
2022/12/27 08:27:11;;;;;;;0.10;0.10;;;4.50;99.90;;;;;;5072445;28;20283;-79
2022/12/27 08:29:37;;;;;;;0.10;0.10;;;4.60;99.90;;;;;;5056316;28;20219;-79
2022/12/27 08:32:03;;;;;;;0.00;0.00;;;4.70;99.90;;;;;;5055329;28;20240;-80
2022/12/27 08:34:29;;;;;;;0.10;0.10;;;4.80;99.90;;;;;;5059016;28;20623;-80
2022/12/27 08:36:54;;;;;;;0.10;0.10;;;4.90;99.90;;;;;;5053994;28;20188;-80
2022/12/27 08:39:20;;;;;;;0.00;0.00;;;5.00;99.90;;;;;;5057735;28;20187;-81
2022/12/27 08:41:46;;;;;;;0.10;0.10;;;5.10;99.90;;;;;;5058076;28;20551;-82
2022/12/27 08:44:12;;;;;;;0.10;0.10;;;5.10;99.90;;;;;;5059313;28;20185;-82
2022/12/27 08:46:38;;;;;;;0.10;0.10;;;5.20;99.90;;;;;;5060946;28;20214;-82
2022/12/27 08:49:04;;;;;;;0.00;0.00;;;5.30;99.90;;;;;;5061345;28;20180;-81
2022/12/27 08:51:29;;;;;;;0.10;0.10;;;5.30;99.90;;;;;;5077387;28;20294;-81
2022/12/27 08:53:56;;;;;;;0.10;0.10;;;5.40;99.90;;;;;;5077655;28;20277;-82
2022/12/27 08:56:21;;;;;;;0.10;0.10;;;5.50;99.90;;;;;;5061488;28;20192;-82
2022/12/27 08:58:50;;;;;;;0.00;0.00;;;5.60;99.90;;;;;;5077348;28;20250;-82
2022/12/27 09:01:16;;;;;;;0.10;0.10;;;5.60;99.90;;;;;;5062272;28;20208;-82
2022/12/27 09:03:41;;;;;;;0.10;0.10;;;5.70;99.90;;;;;;5062634;28;21053;-83
2022/12/27 09:06:15;;;;;;;0.00;0.00;;;5.70;99.90;;;;;;5061279;28;20184;-84
2022/12/27 09:08:43;;;;;;;0.10;0.10;;;5.80;99.90;;;;;;5060071;28;20282;-86
2022/12/27 09:11:29;;;;;;;0.10;0.10;;;5.90;99.90;;;;;;5062231;28;20247;-84
2022/12/27 09:13:56;;;;;;;0.10;0.10;;;6.00;99.90;;;;;;5059827;28;20239;-84
2022/12/27 09:16:26;;;;;;;0.10;0.10;;;6.00;99.90;;;;;;5060426;28;20201;-85
2022/12/27 09:18:53;;;;;;;0.10;0.10;;;6.10;99.90;;;;;;5062206;28;20182;-85
2022/12/27 09:21:20;;;;;;;0.10;0.10;;;6.20;99.90;;;;;;5075087;28;20580;-85
2022/12/27 09:23:46;;;;;;;0.10;0.10;;;6.30;99.90;;;;;;5076037;28;20192;-84
2022/12/27 09:26:18;;;;;;;0.10;0.10;;;6.40;99.90;;;;;;5074855;28;20247;-85
2022/12/27 09:28:44;;;;;;;0.00;0.00;;;6.40;99.90;;;;;;5061757;28;20240;-85
2022/12/27 09:31:10;;;;;;;0.10;0.10;;;6.40;99.90;;;;;;5074302;28;20240;-85
2022/12/27 09:33:36;;;;;;;0.00;0.00;;;6.30;99.90;;;;;;5061442;28;20213;-86
2022/12/27 09:36:04;;;;;;;0.00;0.00;;;6.30;99.90;;;;;;5073040;28;20192;-85
2022/12/27 09:38:30;;;;;;;0.00;0.00;;;6.30;99.90;;;;;;5054792;28;20181;-85
2022/12/27 09:40:58;;;;;;;0.10;0.10;;;6.30;99.90;;;;;;5070392;28;20258;-83
2022/12/27 09:43:40;;;;;;;0.10;0.10;;;6.20;99.90;;;;;;5055994;28;20231;-85
2022/12/27 09:46:17;;;;;;;0.10;0.10;;;6.20;99.90;;;;;;5058969;28;20190;-83
2022/12/27 09:48:43;;;;;;;0.07;0.07;;;6.10;99.90;;;;;;5058339;28;20548;-82
2022/12/27 09:51:18;;;;;;;0.10;0.10;;;6.10;99.90;;;;;;5056253;28;20238;-83
2022/12/27 09:53:50;;;;;;;0.10;0.10;;;6.20;99.90;;;;;;5072048;28;20219;-82
2022/12/27 09:56:23;;;;;;;0.10;0.10;;;6.20;99.90;;;;;;5055507;28;20181;-83
2022/12/27 09:58:57;;;;;;;0.00;0.00;;;6.30;99.90;;;;;;5073543;28;20291;-83
2022/12/27 10:01:27;;;;;;;0.10;0.10;;;6.40;99.90;;;;;;5054565;28;20212;-84
2022/12/27 10:03:52;;;;;;;0.10;0.10;;;6.40;99.90;;;;;;5075066;28;20184;-83
2022/12/27 10:06:56;;;;;;;0.10;0.10;;;6.50;99.90;;;;;;5066849;28;20243;-84
2022/12/27 10:09:39;;;;;;;0.10;0.10;;;6.50;99.90;;;;;;5045000;28;20196;-86
2022/12/27 10:12:37;;;;;;;0.10;0.10;;;6.50;99.90;;;;;;5072284;28;20217;-80
2022/12/27 10:15:02;;;;;;;0.10;0.10;;;6.50;99.90;;;;;;5069797;28;20190;-79
2022/12/27 10:17:49;;;;;;;0.03;0.03;;;6.60;99.90;;;;;;5055076;28;20185;-81
2022/12/27 10:20:44;;;;;;;0.10;0.10;;;6.60;99.90;;;;;;5067362;28;20208;-81
2022/12/27 10:23:13;;;;;;;0.00;0.00;;;6.60;99.90;;;;;;5051558;28;20201;-80
2022/12/27 10:25:40;;;;;;;0.10;0.10;;;6.60;99.90;;;;;;5054862;28;20682;-80
2022/12/27 10:28:18;;;;;;;0.10;0.10;;;6.50;99.90;;;;;;5049338;28;20181;-81
2022/12/27 10:30:44;;;;;;;0.10;0.10;;;6.50;99.90;;;;;;5069345;28;20254;-80
2022/12/27 10:33:19;;;;;;;0.10;0.10;;;6.60;99.90;;;;;;5067472;28;20212;-80
2022/12/27 10:35:47;;;;;;;0.10;0.10;;;6.70;99.90;;;;;;5050847;28;20220;-80
2022/12/27 10:38:12;;;;;;;0.10;0.10;;;6.70;99.90;;;;;;5052838;28;20208;-80
2022/12/27 10:41:01;;;;;;;0.10;0.10;;;6.80;99.90;;;;;;5064518;28;20225;-79
2022/12/27 10:43:34;;;;;;;0.00;0.00;;;6.80;99.90;;;;;;5054895;28;20182;-79
2022/12/27 10:46:12;;;;;;;0.10;0.10;;;6.70;99.90;;;;;;5053805;28;20762;-81
2022/12/27 10:48:38;;;;;;;0.10;0.10;;;6.70;99.90;;;;;;5052712;28;20553;-80
2022/12/27 10:51:09;;;;;;;0.10;0.10;;;6.80;99.90;;;;;;5063497;28;20205;-81
2022/12/27 10:53:39;;;;;;;0.00;0.00;;;6.80;99.90;;;;;;5066187;28;20321;-80
2022/12/27 10:56:28;;;;;;;0.00;0.00;;;6.90;99.90;;;;;;5063078;28;20268;-81
2022/12/27 10:59:06;;;;;;;0.00;0.00;;;7.00;99.90;;;;;;5052859;28;20197;-80
2022/12/27 11:01:32;;;;;;;0.10;0.10;;;7.10;99.90;;;;;;5053121;28;20197;-81
2022/12/27 11:04:25;;;;;;;0.10;0.10;;;7.20;99.90;;;;;;5057379;28;20285;-81
2022/12/27 11:07:17;;;;;;;0.10;0.10;;;7.30;99.90;;;;;;5069985;28;20200;-81
2022/12/27 11:09:44;;;;;;;0.07;0.07;;;7.20;99.90;;;;;;5051716;28;20568;-80
2022/12/27 11:12:23;;;;;;;0.10;0.10;;;7.30;99.90;;;;;;5058396;28;20212;-79
2022/12/27 11:14:58;;;;;;;0.10;0.10;;;7.30;99.90;;;;;;5069788;28;20194;-81
2022/12/27 11:17:37;;;;;;;0.10;0.10;;;7.40;99.90;;;;;;5058858;28;20188;-80
2022/12/27 11:20:27;;;;;;;0.10;0.10;;;7.50;99.90;;;;;;5057380;28;20708;-80
2022/12/27 11:23:08;;;;;;;0.10;0.10;;;7.50;99.90;;;;;;5056159;28;20749;-81
2022/12/27 11:25:35;;;;;;;0.00;0.00;;;7.50;99.90;;;;;;5057580;28;20220;-81
2022/12/27 11:28:05;;;;;;;0.10;0.10;;;7.60;99.90;;;;;;5056983;28;20182;-80
2022/12/27 11:30:32;;;;;;;0.10;0.10;;;7.60;99.90;;;;;;5057483;28;20774;-80
2022/12/27 11:33:03;;;;;;;0.03;0.03;;;7.80;99.90;;;;;;5060939;28;20217;-81
2022/12/27 11:35:30;;;;;;;0.10;0.10;;;7.90;99.90;;;;;;5075066;28;20247;-81
2022/12/27 11:37:56;;;;;;;0.00;0.00;;;8.00;99.90;;;;;;5073501;28;20182;-80
2022/12/27 11:40:33;;;;;;;0.10;0.10;;;8.20;99.90;;;;;;5054463;28;20205;-81
2022/12/27 11:43:10;;;;;;;0.10;0.10;;;8.10;99.90;;;;;;5057216;28;20576;-80
2022/12/27 11:45:43;;;;;;;0.10;0.10;;;8.00;99.90;;;;;;5071599;28;20182;-81
2022/12/27 11:48:24;;;;;;;0.10;0.10;;;8.10;99.90;;;;;;5073567;28;20259;-81
2022/12/27 11:51:32;;;;;;;0.00;0.00;;;8.10;99.90;;;;;;5071107;28;20212;-79
2022/12/27 11:54:31;;;;;;;0.10;0.10;;;8.10;99.90;;;;;;5046370;28;20221;-80
2022/12/27 11:57:16;;;;;;;0.10;0.10;;;8.10;99.90;;;;;;5057549;28;20189;-80
2022/12/27 12:00:16;;;;;;;0.10;0.10;;;8.30;99.90;;;;;;5036175;28;20209;-80
2022/12/27 12:02:58;;;;;;;0.10;0.10;;;8.30;99.90;;;;;;5054835;28;20685;-79
2022/12/27 12:05:43;;;;;;;0.10;0.10;;;8.30;99.90;;;;;;5071005;28;20195;-80
2022/12/27 12:08:12;;;;;;;0.10;0.10;;;8.40;99.90;;;;;;5056260;28;20180;-81
2022/12/27 12:10:49;;;;;;;0.10;0.10;;;8.20;99.90;;;;;;5055792;28;20224;-81
2022/12/27 12:13:28;;;;;;;0.10;0.10;;;8.20;99.90;;;;;;5056818;28;20202;-80
2022/12/27 12:16:18;;;;;;;0.10;0.10;;;8.30;99.90;;;;;;5058764;28;20368;-80
2022/12/27 12:19:06;;;;;;;0.00;0.00;;;8.30;99.90;;;;;;5067835;28;20184;-81
2022/12/27 12:22:01;;;;;;;0.10;0.10;;;8.20;99.90;;;;;;5073608;28;20285;-80
2022/12/27 12:24:32;;;;;;;0.10;0.10;;;8.20;99.90;;;;;;5054973;28;21261;-81
2022/12/27 12:27:29;;;;;;;0.00;0.00;;;8.30;99.90;;;;;;5058299;28;20194;-80
2022/12/27 12:29:57;;;;;;;0.10;0.10;;;8.30;99.90;;;;;;5056041;28;20186;-80
2022/12/27 12:32:33;;;;;;;0.10;0.10;;;8.20;99.90;;;;;;5056439;28;20620;-81
2022/12/27 12:35:24;;;;;;;0.10;0.10;;;8.10;99.90;;;;;;5056130;28;20186;-80
2022/12/27 12:38:00;;;;;;;0.00;0.00;;;8.20;99.90;;;;;;5059849;28;20691;-81
2022/12/27 12:41:15;;;;;;;0.10;0.10;;;8.10;99.90;;;;;;5055670;28;20218;-80
2022/12/27 12:44:20;;;;;;;0.10;0.10;;;8.10;99.90;;;;;;4999930;28;20255;-80
2022/12/27 12:46:54;;;;;;;0.10;0.10;;;8.00;99.90;;;;;;5033578;28;20202;-80
2022/12/27 12:49:35;;;;;;;0.10;0.10;;;7.90;99.90;;;;;;5062117;28;20241;-80
2022/12/27 12:52:29;;;;;;;0.10;0.10;;;7.80;99.90;;;;;;5057701;28;20259;-80
2022/12/27 12:55:01;;;;;;;0.10;0.10;;;7.70;99.90;;;;;;5073255;28;20575;-81
2022/12/27 12:57:47;;;;;;;0.10;0.10;;;7.80;99.90;;;;;;5074657;28;20191;-81
2022/12/27 13:00:35;;;;;;;0.10;0.10;;;7.70;99.90;;;;;;5058732;28;20212;-81
2022/12/27 13:03:31;;;;;;;0.10;0.10;;;7.90;99.90;;;;;;5061100;28;20182;-81
2022/12/27 13:06:06;;;;;;;0.10;0.10;;;8.00;99.90;;;;;;5076026;28;20209;-80
2022/12/27 13:09:01;;;;;;;0.10;0.10;;;8.00;99.90;;;;;;5057352;28;21268;-82
2022/12/27 13:11:50;;;;;;;0.10;0.10;;;8.10;99.90;;;;;;5059808;28;20259;-81
2022/12/27 13:14:37;;;;;;;0.10;0.10;;;8.10;99.90;;;;;;5058553;28;20181;-82
2022/12/27 13:17:20;;;;;;;0.10;0.10;;;8.10;99.90;;;;;;5076160;28;20535;-81
2022/12/27 13:20:23;;;;;;;0.10;0.10;;;8.30;99.90;;;;;;5074010;28;20193;-80
2022/12/27 13:23:05;;;;;;;0.10;0.10;;;8.50;99.90;;;;;;5073780;28;20190;-81
2022/12/27 13:25:47;;;;;;;0.10;0.10;;;8.50;99.90;;;;;;5059211;28;20183;-82
2022/12/27 13:28:27;;;;;;;0.10;0.10;;;8.60;99.90;;;;;;5075037;28;20197;-82
2022/12/27 13:30:55;;;;;;;0.00;0.00;;;8.70;99.90;;;;;;5075356;28;20315;-81
2022/12/27 13:33:29;;;;;;;0.03;0.03;;;8.70;99.90;;;;;;5059340;28;20209;-82
2022/12/27 13:36:14;;;;;;;0.10;0.10;;;8.60;99.90;;;;;;5060321;28;20578;-82
2022/12/27 13:39:08;;;;;;;0.10;0.10;;;8.40;99.90;;;;;;5072099;28;20193;-81
2022/12/27 13:41:52;;;;;;;0.10;0.10;;;8.40;99.90;;;;;;5074846;28;20201;-81
2022/12/27 13:44:25;;;;;;;0.10;0.10;;;8.40;99.90;;;;;;5072537;28;20182;-80
2022/12/27 13:47:17;;;;;;;0.10;0.10;;;8.40;99.90;;;;;;5057086;28;20270;-82
2022/12/27 13:49:46;;;;;;;0.00;0.00;;;8.40;99.90;;;;;;5060378;28;20232;-82
2022/12/27 13:52:44;;;;;;;0.10;0.10;;;8.40;99.90;;;;;;5056191;28;20291;-81
2022/12/27 13:55:19;;;;;;;0.03;0.03;;;8.40;99.90;;;;;;5056789;28;20196;-81
2022/12/27 13:58:23;;;;;;;0.10;0.10;;;8.40;99.90;;;;;;5074252;28;20287;-81
2022/12/27 14:01:16;;;;;;;0.10;0.10;;;8.50;99.90;;;;;;5055994;28;20202;-81
2022/12/27 14:04:04;;;;;;;0.10;0.10;;;8.60;99.90;;;;;;5071947;28;20186;-82
2022/12/27 14:06:52;;;;;;;0.10;0.10;;;8.50;99.90;;;;;;5061475;28;20169;-81
2022/12/27 14:09:36;;;;;;;0.10;0.10;;;8.50;99.90;;;;;;5057321;28;20188;-81
2022/12/27 14:12:21;;;;;;;0.10;0.10;;;8.40;99.90;;;;;;5074520;28;20551;-81
2022/12/27 14:14:53;;;;;;;0.00;0.00;;;8.30;99.90;;;;;;5073852;28;20181;-82
2022/12/27 14:17:58;;;;;;;0.10;0.10;;;8.30;99.90;;;;;;5074225;28;20261;-82
2022/12/27 14:20:40;;;;;;;0.10;0.10;;;8.20;99.90;;;;;;5072691;28;20243;-82
2022/12/27 14:23:39;;;;;;;0.10;0.10;;;8.20;99.90;;;;;;5074081;28;20189;-81
2022/12/27 14:26:18;;;;;;;0.10;0.10;;;8.10;99.90;;;;;;5072212;28;20200;-81
2022/12/27 14:28:57;;;;;;;0.10;0.10;;;8.10;99.90;;;;;;5057902;28;20202;-81
2022/12/27 14:31:42;;;;;;;0.10;0.10;;;8.20;99.90;;;;;;5058703;28;20210;-81
2022/12/27 14:34:45;;;;;;;0.10;0.10;;;8.20;99.90;;;;;;5058574;28;21143;-81
2022/12/27 14:37:28;;;;;;;0.00;0.00;;;8.10;99.90;;;;;;5072709;28;20193;-80
2022/12/27 14:40:23;;;;;;;0.10;0.10;;;8.10;99.90;;;;;;5076291;28;20187;-81
2022/12/27 14:43:27;;;;;;;0.10;0.10;;;8.20;99.90;;;;;;5057332;28;20637;-80
2022/12/27 14:45:56;;;;;;;0.10;0.10;;;8.00;99.90;;;;;;5056509;28;20191;-81
2022/12/27 14:48:50;;;;;;;0.10;0.10;;;7.90;99.90;;;;;;5072164;28;20660;-81
2022/12/27 14:51:59;;;;;;;0.10;0.10;;;7.80;99.90;;;;;;5058510;28;20214;-81
2022/12/27 14:55:06;;;;;;;0.10;0.10;;;7.80;99.90;;;;;;5056177;28;20218;-81
2022/12/27 14:58:02;;;;;;;0.07;0.07;;;7.60;99.90;;;;;;5058227;28;20219;-82
2022/12/27 15:00:52;;;;;;;0.10;0.10;;;7.60;99.90;;;;;;5042311;28;20218;-81
2022/12/27 15:03:48;;;;;;;0.10;0.10;;;7.60;99.90;;;;;;5058283;28;20181;-82
2022/12/27 15:06:23;;;;;;;0.10;0.10;;;7.50;99.90;;;;;;5072769;28;20191;-82
2022/12/27 15:09:03;;;;;;;0.10;0.10;;;7.50;99.90;;;;;;5056555;28;20276;-81
2022/12/27 15:11:47;;;;;;;0.10;0.10;;;7.40;99.90;;;;;;5055553;28;20206;-81